Time;durP1;ratioP1;P1;durP2;ratioP2;P2;SDS_P1;SDS_P2;PMS_P1;PMS_P2;Temp;Humidity;BMP_temperature;BMP_pressure;BME280_temperature;BME280_humidity;BME280_pressure;Samples;Min_cycle;Max_cycle;Signal;HPM_P1;HPM_P2
2021/08/05 00:01:23;;;;;;;7.68;5.90;;;20.10;99.90;;;;;;4123099;28;20101;-71
2021/08/05 00:03:24;;;;;;;8.07;6.60;;;20.20;99.90;;;;;;4135732;28;20057;-71
2021/08/05 00:05:24;;;;;;;11.73;6.75;;;20.20;99.90;;;;;;4135312;28;20042;-71
2021/08/05 00:07:25;;;;;;;7.78;6.60;;;20.20;99.90;;;;;;4123143;28;20089;-71
2021/08/05 00:09:25;;;;;;;7.30;6.50;;;20.20;99.90;;;;;;4141035;28;20554;-71
2021/08/05 00:11:26;;;;;;;6.70;5.95;;;20.20;99.90;;;;;;4141102;28;20574;-71
2021/08/05 00:13:28;;;;;;;7.55;5.93;;;20.10;99.90;;;;;;4140570;28;20037;-71
2021/08/05 00:15:29;;;;;;;7.53;6.72;;;20.10;99.90;;;;;;4126478;28;20126;-71
2021/08/05 00:17:29;;;;;;;6.88;5.97;;;20.10;99.90;;;;;;4129232;28;20550;-71
2021/08/05 00:19:30;;;;;;;8.13;7.32;;;20.10;99.90;;;;;;4140768;28;20559;-71
2021/08/05 00:21:31;;;;;;;8.60;7.70;;;20.10;99.90;;;;;;4140362;28;20074;-71
2021/08/05 00:23:31;;;;;;;8.82;7.93;;;20.10;99.90;;;;;;4141898;28;20660;-70
2021/08/05 00:25:32;;;;;;;9.27;7.40;;;20.00;99.90;;;;;;4123276;28;20046;-71
2021/08/05 00:27:33;;;;;;;9.35;7.55;;;20.00;99.90;;;;;;4142349;28;20038;-71
2021/08/05 00:29:33;;;;;;;7.82;6.82;;;20.00;99.90;;;;;;4144522;28;20092;-71
2021/08/05 00:31:34;;;;;;;8.15;6.53;;;19.90;99.90;;;;;;4130057;28;20042;-71
2021/08/05 00:33:35;;;;;;;7.60;6.50;;;19.90;99.90;;;;;;4142953;28;20497;-70
2021/08/05 00:35:35;;;;;;;6.90;6.15;;;19.90;99.90;;;;;;4140998;28;20045;-70
2021/08/05 00:37:36;;;;;;;7.55;6.72;;;19.90;99.90;;;;;;4122893;28;20035;-71
2021/08/05 00:39:37;;;;;;;8.55;6.45;;;19.90;99.90;;;;;;4132418;28;20133;-71
2021/08/05 00:41:37;;;;;;;8.02;6.55;;;19.90;99.90;;;;;;4107034;28;20054;-71
2021/08/05 00:43:38;;;;;;;6.82;6.13;;;19.90;99.90;;;;;;4122686;28;20046;-71
2021/08/05 00:45:39;;;;;;;8.93;6.82;;;19.90;99.90;;;;;;4123205;28;20279;-71
2021/08/05 00:47:39;;;;;;;6.57;5.90;;;19.90;99.90;;;;;;4125509;28;20042;-71
2021/08/05 00:49:40;;;;;;;9.13;7.00;;;19.90;99.90;;;;;;4143348;28;20030;-71
2021/08/05 00:51:41;;;;;;;7.75;6.38;;;19.90;99.90;;;;;;4110216;28;20332;-71
2021/08/05 00:53:44;;;;;;;8.05;5.68;;;19.90;99.90;;;;;;4151397;28;20044;-71
2021/08/05 00:55:46;;;;;;;6.35;5.65;;;19.90;99.90;;;;;;4143985;28;20095;-71
2021/08/05 00:57:46;;;;;;;7.35;6.18;;;19.80;99.90;;;;;;4126577;28;20034;-71
2021/08/05 00:59:47;;;;;;;6.65;5.50;;;19.90;99.90;;;;;;4143457;28;20068;-71
2021/08/05 01:01:54;;;;;;;6.82;5.88;;;19.80;99.90;;;;;;4141539;28;20625;-71
2021/08/05 01:03:56;;;;;;;7.07;6.00;;;19.90;99.90;;;;;;4138312;28;20034;-71
2021/08/05 01:06:04;;;;;;;7.25;5.78;;;19.90;99.90;;;;;;4142951;28;20113;-71
2021/08/05 01:08:16;;;;;;;7.13;5.10;;;19.90;99.90;;;;;;4143939;28;20033;-70
2021/08/05 01:10:32;;;;;;;7.03;5.43;;;19.90;99.90;;;;;;4148495;28;20025;-70
2021/08/05 01:12:42;;;;;;;7.07;5.55;;;19.90;99.90;;;;;;4142487;28;20099;-71
2021/08/05 01:14:50;;;;;;;6.45;5.30;;;19.90;99.90;;;;;;4143310;28;20060;-70
2021/08/05 01:16:52;;;;;;;6.80;5.15;;;19.90;99.90;;;;;;4143158;28;20034;-70
2021/08/05 01:18:59;;;;;;;8.70;5.07;;;19.90;99.90;;;;;;4143254;28;20065;-71
2021/08/05 01:21:08;;;;;;;6.10;5.28;;;19.90;99.90;;;;;;4125990;28;20073;-71
2021/08/05 01:23:32;;;;;;;6.40;5.55;;;19.90;99.90;;;;;;4142831;28;20045;-71
2021/08/05 01:25:42;;;;;;;5.95;5.32;;;19.90;99.90;;;;;;4139422;28;20469;-71
2021/08/05 01:27:44;;;;;;;6.10;5.50;;;19.90;99.90;;;;;;4133142;28;20033;-70
2021/08/05 01:29:45;;;;;;;6.90;5.80;;;19.90;99.90;;;;;;4126351;28;20114;-71
2021/08/05 01:31:48;;;;;;;6.15;5.55;;;19.90;99.90;;;;;;4142708;28;20764;-71
2021/08/05 01:33:50;;;;;;;8.02;5.80;;;19.90;99.90;;;;;;4128583;28;20049;-70
2021/08/05 01:35:52;;;;;;;;;;;19.90;99.90;;;;;;4134827;28;20511;-70
2021/08/05 01:37:54;;;;;;;6.50;5.85;;;19.90;99.90;;;;;;4125279;28;20000;-70
2021/08/05 01:39:55;;;;;;;6.90;6.07;;;19.90;99.90;;;;;;4147092;28;20111;-71
2021/08/05 01:41:56;;;;;;;6.63;5.72;;;19.90;99.90;;;;;;4142670;28;20042;-71
2021/08/05 01:43:57;;;;;;;7.63;6.60;;;19.90;99.90;;;;;;4143335;28;20072;-71
2021/08/05 01:45:58;;;;;;;8.60;6.95;;;19.90;99.90;;;;;;4143407;28;20073;-71
2021/08/05 01:48:01;;;;;;;10.15;7.10;;;19.90;99.90;;;;;;4125478;28;20380;-71
2021/08/05 01:50:02;;;;;;;8.35;6.97;;;19.90;99.90;;;;;;4132519;28;20334;-71
2021/08/05 01:52:04;;;;;;;8.07;6.32;;;19.90;99.90;;;;;;4142245;28;20033;-71
2021/08/05 01:54:04;;;;;;;8.50;7.25;;;19.90;99.90;;;;;;4145384;28;20095;-71
2021/08/05 01:56:05;;;;;;;8.30;6.30;;;19.90;99.90;;;;;;4143100;28;20042;-71
2021/08/05 01:58:06;;;;;;;7.53;5.95;;;19.90;99.90;;;;;;4142584;28;20426;-71
2021/08/05 02:00:08;;;;;;;6.97;6.28;;;19.90;99.90;;;;;;4142803;28;20398;-71
2021/08/05 02:02:09;;;;;;;7.57;6.57;;;19.90;99.90;;;;;;4142081;28;20049;-71
2021/08/05 02:04:12;;;;;;;7.35;6.53;;;19.90;99.90;;;;;;4142626;28;20048;-71
2021/08/05 02:06:23;;;;;;;12.45;6.47;;;19.90;99.90;;;;;;4142861;28;20044;-71
2021/08/05 02:08:43;;;;;;;10.70;6.50;;;19.90;99.90;;;;;;4142456;28;20033;-71
2021/08/05 02:10:46;;;;;;;7.55;6.63;;;19.90;99.90;;;;;;4124731;28;20089;-71
2021/08/05 02:12:51;;;;;;;7.88;6.70;;;19.80;99.90;;;;;;4125168;28;20034;-71
2021/08/05 02:14:54;;;;;;;8.00;6.68;;;19.90;99.90;;;;;;4131219;28;20566;-71
2021/08/05 02:16:58;;;;;;;8.10;7.22;;;19.90;99.90;;;;;;4124965;28;20145;-71
2021/08/05 02:18:58;;;;;;;10.73;7.00;;;19.90;99.90;;;;;;4142820;28;20099;-71
2021/08/05 02:21:02;;;;;;;9.95;6.68;;;19.80;99.90;;;;;;4142549;28;20045;-71
2021/08/05 02:23:02;;;;;;;8.25;7.07;;;19.80;99.90;;;;;;4108468;28;20046;-71
2021/08/05 02:25:04;;;;;;;8.07;7.22;;;19.80;99.90;;;;;;4142343;28;20405;-71
2021/08/05 02:27:04;;;;;;;8.95;7.60;;;19.80;99.90;;;;;;4141713;28;20034;-71
2021/08/05 02:29:06;;;;;;;7.45;6.05;;;19.80;99.90;;;;;;4142301;28;20107;-71
2021/08/05 02:31:08;;;;;;;8.10;7.28;;;19.80;99.90;;;;;;4149828;28;20099;-71
2021/08/05 02:33:09;;;;;;;9.43;6.50;;;19.80;99.90;;;;;;4124069;28;20050;-71
2021/08/05 02:35:12;;;;;;;7.50;6.45;;;19.80;99.90;;;;;;4142134;28;20292;-71
2021/08/05 02:37:12;;;;;;;6.85;6.15;;;19.80;99.90;;;;;;4125196;28;20038;-70
2021/08/05 02:39:13;;;;;;;7.47;6.72;;;19.80;99.90;;;;;;4141993;28;20179;-71
2021/08/05 02:41:15;;;;;;;9.95;7.05;;;19.80;99.90;;;;;;4142143;28;20033;-70
2021/08/05 02:43:17;;;;;;;7.65;6.32;;;19.80;99.90;;;;;;4142092;28;20482;-71
2021/08/05 02:45:17;;;;;;;10.30;6.30;;;19.80;99.90;;;;;;4147925;28;20040;-71
2021/08/05 02:47:19;;;;;;;7.50;5.97;;;19.70;99.90;;;;;;4142167;28;20132;-71
2021/08/05 02:49:20;;;;;;;6.55;5.88;;;19.70;99.90;;;;;;4141795;28;20455;-70
2021/08/05 02:51:21;;;;;;;6.20;5.60;;;19.70;99.90;;;;;;4142990;28;20037;-71
2021/08/05 02:53:23;;;;;;;7.00;6.30;;;19.70;99.90;;;;;;4141751;28;20501;-71
2021/08/05 02:55:24;;;;;;;6.40;5.70;;;19.70;99.90;;;;;;4143002;28;20430;-71
2021/08/05 02:57:26;;;;;;;7.15;6.28;;;19.70;99.90;;;;;;4142258;28;20289;-70
2021/08/05 02:59:27;;;;;;;7.90;5.97;;;19.70;99.90;;;;;;4124456;28;20043;-70
2021/08/05 03:01:28;;;;;;;6.95;6.28;;;19.70;99.90;;;;;;4141749;28;20148;-71
2021/08/05 03:03:28;;;;;;;7.68;6.85;;;19.60;99.90;;;;;;4141982;28;20041;-70
2021/08/05 03:05:29;;;;;;;7.75;6.80;;;19.60;99.90;;;;;;4140931;28;20037;-70
2021/08/05 03:07:30;;;;;;;7.85;6.65;;;19.60;99.90;;;;;;4124206;28;20046;-71
2021/08/05 03:09:30;;;;;;;7.97;7.18;;;19.60;99.90;;;;;;4123758;28;20065;-71
2021/08/05 03:11:31;;;;;;;8.68;7.25;;;19.60;99.90;;;;;;4149005;28;20096;-71
2021/08/05 03:13:32;;;;;;;7.00;5.88;;;19.50;99.90;;;;;;4124521;28;20490;-70
2021/08/05 03:15:32;;;;;;;8.38;6.32;;;19.60;99.90;;;;;;4141876;28;20038;-70
2021/08/05 03:17:33;;;;;;;8.10;6.85;;;19.60;99.90;;;;;;4124254;28;20061;-71
2021/08/05 03:19:34;;;;;;;7.82;6.35;;;19.60;99.90;;;;;;4141748;28;20030;-70
2021/08/05 03:21:34;;;;;;;7.10;6.40;;;19.60;99.90;;;;;;4141214;28;20052;-71
2021/08/05 03:23:35;;;;;;;7.05;6.35;;;19.50;99.90;;;;;;4141550;28;20678;-70
2021/08/05 03:25:35;;;;;;;8.73;6.07;;;19.60;99.90;;;;;;4144407;28;20156;-71
2021/08/05 03:27:37;;;;;;;7.20;6.50;;;19.60;99.90;;;;;;4127403;28;20065;-71
2021/08/05 03:29:38;;;;;;;8.83;6.63;;;19.60;99.90;;;;;;4132986;28;20041;-70
2021/08/05 03:31:38;;;;;;;6.43;5.72;;;19.60;99.90;;;;;;4125242;28;20030;-70
2021/08/05 03:33:39;;;;;;;7.25;6.35;;;19.60;99.90;;;;;;4131185;28;20041;-71
2021/08/05 03:35:39;;;;;;;7.15;6.10;;;19.60;99.90;;;;;;4143041;28;20036;-70
2021/08/05 03:37:40;;;;;;;8.13;6.63;;;19.60;99.90;;;;;;4149014;28;20041;-71
2021/08/05 03:39:40;;;;;;;8.48;6.13;;;19.60;99.90;;;;;;4141597;28;20060;-70
2021/08/05 03:41:41;;;;;;;9.95;6.38;;;19.60;99.90;;;;;;4145460;28;20100;-71
2021/08/05 03:43:42;;;;;;;6.78;6.07;;;19.60;99.90;;;;;;4141544;28;20080;-70
2021/08/05 03:45:42;;;;;;;6.47;5.88;;;19.60;99.90;;;;;;4130854;28;20109;-71
2021/08/05 03:47:43;;;;;;;7.70;6.22;;;19.60;99.90;;;;;;4141497;28;20087;-71
2021/08/05 03:49:44;;;;;;;9.55;7.07;;;19.60;99.90;;;;;;4124028;28;20057;-71
2021/08/05 03:51:44;;;;;;;9.50;6.70;;;19.60;99.90;;;;;;4140639;28;20478;-71
2021/08/05 03:53:45;;;;;;;8.25;6.45;;;19.60;99.90;;;;;;4123748;28;20031;-71
2021/08/05 03:55:45;;;;;;;6.78;6.07;;;19.60;99.90;;;;;;4141385;28;20038;-71
2021/08/05 03:57:49;;;;;;;7.07;6.00;;;19.60;99.90;;;;;;4137742;28;20063;-71
2021/08/05 03:59:49;;;;;;;7.93;5.88;;;19.60;99.90;;;;;;4123856;28;20039;-70
2021/08/05 04:01:50;;;;;;;8.52;6.97;;;19.60;99.90;;;;;;4139533;28;20041;-71
2021/08/05 04:03:50;;;;;;;8.00;6.40;;;19.60;99.90;;;;;;4140982;28;20528;-70
2021/08/05 04:05:51;;;;;;;8.25;6.47;;;19.60;99.90;;;;;;4141472;28;20367;-70
2021/08/05 04:07:52;;;;;;;9.95;7.32;;;19.60;99.90;;;;;;4147312;28;20116;-70
2021/08/05 04:09:52;;;;;;;7.03;5.80;;;19.50;99.90;;;;;;4123374;28;20034;-71
2021/08/05 04:11:53;;;;;;;7.03;5.43;;;19.60;99.90;;;;;;4141121;28;20053;-71
2021/08/05 04:13:53;;;;;;;7.40;5.95;;;19.60;99.90;;;;;;4141352;28;20088;-71
2021/08/05 04:15:54;;;;;;;7.68;6.10;;;19.60;99.90;;;;;;4140548;28;20042;-71
2021/08/05 04:17:55;;;;;;;7.93;6.05;;;19.60;99.90;;;;;;4117589;28;20088;-71
2021/08/05 04:19:55;;;;;;;6.70;6.00;;;19.60;99.90;;;;;;4140892;28;20030;-71
2021/08/05 04:21:56;;;;;;;8.23;6.70;;;19.50;99.90;;;;;;4125934;28;20121;-71
2021/08/05 04:23:56;;;;;;;6.95;5.78;;;19.50;99.90;;;;;;4144509;28;20029;-71
2021/08/05 04:25:57;;;;;;;11.25;5.72;;;19.50;99.90;;;;;;4144255;28;20037;-71
2021/08/05 04:27:57;;;;;;;9.55;7.03;;;19.50;99.90;;;;;;4126889;28;20044;-71
2021/08/05 04:29:58;;;;;;;7.85;6.55;;;19.50;99.90;;;;;;4144599;28;20050;-70
2021/08/05 04:31:59;;;;;;;15.23;6.68;;;19.50;99.90;;;;;;4131433;28;20053;-71
2021/08/05 04:33:59;;;;;;;11.15;6.47;;;19.50;99.90;;;;;;4144246;28;20422;-71
2021/08/05 04:36:00;;;;;;;7.30;6.13;;;19.50;99.90;;;;;;4144608;28;20046;-70
2021/08/05 04:38:01;;;;;;;7.13;5.80;;;19.50;99.90;;;;;;4144005;28;20152;-71
2021/08/05 04:40:02;;;;;;;7.57;6.18;;;19.50;99.90;;;;;;4144254;28;20030;-70
2021/08/05 04:42:03;;;;;;;6.70;6.00;;;19.50;99.90;;;;;;4126603;28;20069;-71
2021/08/05 04:44:04;;;;;;;7.25;6.13;;;19.50;99.90;;;;;;4126536;28;20026;-70
2021/08/05 04:46:04;;;;;;;8.48;6.07;;;19.50;99.90;;;;;;4144182;28;20038;-71
2021/08/05 04:48:07;;;;;;;8.75;6.20;;;19.40;99.90;;;;;;4144243;28;20042;-70
2021/08/05 04:50:08;;;;;;;8.65;6.38;;;19.40;99.90;;;;;;4143620;28;20041;-71
2021/08/05 04:52:08;;;;;;;7.40;6.32;;;19.50;99.90;;;;;;4144289;28;20478;-70
2021/08/05 04:54:10;;;;;;;8.40;6.43;;;19.40;99.90;;;;;;4144445;28;20030;-70
2021/08/05 04:56:10;;;;;;;8.00;6.77;;;19.40;99.90;;;;;;4126542;28;20030;-70
2021/08/05 04:58:11;;;;;;;8.88;6.18;;;19.40;99.90;;;;;;4143995;28;20120;-70
2021/08/05 05:00:13;;;;;;;7.15;6.38;;;19.40;99.90;;;;;;4143204;28;20034;-71
2021/08/05 05:02:13;;;;;;;7.53;6.40;;;19.40;99.90;;;;;;4147109;28;20037;-71
2021/08/05 05:04:14;;;;;;;10.75;6.75;;;19.40;99.90;;;;;;4160646;28;20374;-71
2021/08/05 05:06:16;;;;;;;8.80;7.03;;;19.40;99.90;;;;;;4144860;28;20515;-70
2021/08/05 05:08:19;;;;;;;7.15;6.45;;;19.40;99.90;;;;;;4137215;28;20030;-70
2021/08/05 05:10:21;;;;;;;8.18;6.50;;;19.40;99.90;;;;;;4144241;28;20045;-71
2021/08/05 05:12:21;;;;;;;9.07;6.72;;;19.40;99.90;;;;;;4146220;28;20124;-71
2021/08/05 05:14:22;;;;;;;9.60;6.90;;;19.30;99.90;;;;;;4160400;28;20033;-71
2021/08/05 05:16:23;;;;;;;7.63;6.60;;;19.30;99.90;;;;;;4158801;28;20029;-71
2021/08/05 05:18:25;;;;;;;6.47;5.82;;;19.40;99.90;;;;;;4142951;28;20045;-71
2021/08/05 05:20:25;;;;;;;7.15;6.30;;;19.30;99.90;;;;;;4143876;28;20083;-70
2021/08/05 05:22:26;;;;;;;9.05;6.30;;;19.30;99.90;;;;;;4118211;28;20777;-71
2021/08/05 05:24:26;;;;;;;9.05;6.85;;;19.40;99.90;;;;;;4125961;28;20022;-71
2021/08/05 05:26:27;;;;;;;7.80;6.60;;;19.40;99.90;;;;;;4128865;28;20106;-71
2021/08/05 05:28:30;;;;;;;7.05;5.80;;;19.40;99.90;;;;;;4141948;28;20548;-71
2021/08/05 05:30:30;;;;;;;7.30;5.85;;;19.40;99.90;;;;;;4128200;28;20035;-70
2021/08/05 05:32:31;;;;;;;7.70;6.55;;;19.40;99.90;;;;;;4119880;28;20034;-71
2021/08/05 05:34:32;;;;;;;7.95;6.20;;;19.40;99.90;;;;;;4127001;28;20034;-71
2021/08/05 05:36:32;;;;;;;8.40;6.25;;;19.40;99.90;;;;;;4128706;28;20450;-71
2021/08/05 05:38:33;;;;;;;8.63;6.35;;;19.40;99.90;;;;;;4137217;28;20035;-70
2021/08/05 05:40:34;;;;;;;8.20;5.93;;;19.40;99.90;;;;;;4126910;28;20089;-71
2021/08/05 05:42:35;;;;;;;7.53;6.50;;;19.40;99.90;;;;;;4133103;28;20045;-71
2021/08/05 05:44:36;;;;;;;7.15;5.85;;;19.40;99.90;;;;;;4126848;28;20042;-71
2021/08/05 05:46:36;;;;;;;7.38;6.35;;;19.50;99.90;;;;;;4117811;28;20032;-71
2021/08/05 05:48:38;;;;;;;9.80;8.45;;;19.50;99.90;;;;;;4100257;28;20031;-71
2021/08/05 05:50:39;;;;;;;11.73;9.35;;;19.50;99.90;;;;;;4127529;28;20479;-71
2021/08/05 05:52:40;;;;;;;13.80;9.50;;;19.50;99.90;;;;;;4110649;28;20110;-70
2021/08/05 05:54:42;;;;;;;11.15;9.70;;;19.60;99.90;;;;;;4132693;28;20041;-70
2021/08/05 05:56:43;;;;;;;13.05;9.80;;;19.60;99.90;;;;;;4109812;28;20074;-71
2021/08/05 05:58:43;;;;;;;16.45;12.68;;;19.60;99.90;;;;;;4131756;28;20442;-71
2021/08/05 06:00:44;;;;;;;19.10;16.08;;;19.60;99.90;;;;;;4135391;28;20474;-71
2021/08/05 06:02:44;;;;;;;21.02;15.80;;;19.60;99.90;;;;;;4114112;28;20022;-71
2021/08/05 06:04:45;;;;;;;18.67;15.73;;;19.60;99.90;;;;;;4113341;28;20035;-71
2021/08/05 06:06:46;;;;;;;24.05;18.77;;;19.60;99.90;;;;;;4128450;28;20101;-71
2021/08/05 06:08:46;;;;;;;21.92;17.27;;;19.60;99.90;;;;;;4131058;28;20038;-71
2021/08/05 06:10:47;;;;;;;21.98;17.42;;;19.60;99.90;;;;;;4102006;28;20122;-71
2021/08/05 06:12:48;;;;;;;20.45;16.60;;;19.60;99.90;;;;;;4142382;28;20037;-71
2021/08/05 06:14:49;;;;;;;19.00;15.82;;;19.60;99.90;;;;;;4134398;28;20116;-72
2021/08/05 06:16:50;;;;;;;18.27;15.27;;;19.60;99.90;;;;;;4136027;28;20027;-71
2021/08/05 06:18:52;;;;;;;23.27;16.50;;;19.60;99.90;;;;;;4135537;28;20034;-71
2021/08/05 06:20:52;;;;;;;19.40;15.35;;;19.60;99.90;;;;;;4134698;28;20045;-72
2021/08/05 06:22:53;;;;;;;23.45;15.93;;;19.70;99.90;;;;;;4136832;28;20034;-71
2021/08/05 06:24:53;;;;;;;19.67;16.73;;;19.70;99.90;;;;;;4135743;28;20042;-71
2021/08/05 06:26:54;;;;;;;22.70;17.02;;;19.80;99.90;;;;;;4134725;28;20037;-71
2021/08/05 06:28:54;;;;;;;24.58;19.33;;;19.80;99.90;;;;;;4120645;28;20391;-71
2021/08/05 06:30:55;;;;;;;23.02;18.48;;;19.90;99.90;;;;;;4136823;28;20230;-71
2021/08/05 06:32:56;;;;;;;21.73;18.02;;;20.00;99.90;;;;;;4118882;28;20034;-71
2021/08/05 06:34:56;;;;;;;23.27;18.13;;;20.00;99.90;;;;;;4132144;28;20038;-71
2021/08/05 06:36:57;;;;;;;23.80;18.15;;;20.00;99.90;;;;;;4135219;28;20508;-71
2021/08/05 06:38:58;;;;;;;20.83;17.75;;;20.00;99.90;;;;;;4116897;28;20528;-71
2021/08/05 06:40:58;;;;;;;22.63;18.30;;;20.00;99.90;;;;;;4133852;28;20125;-71
2021/08/05 06:42:59;;;;;;;28.40;19.67;;;20.10;99.90;;;;;;4135035;28;20450;-71
2021/08/05 06:45:00;;;;;;;20.77;15.18;;;20.10;99.90;;;;;;4132038;28;22229;-72
2021/08/05 06:47:05;;;;;;;20.10;15.52;;;20.10;99.90;;;;;;4115512;28;20038;-72
2021/08/05 06:49:06;;;;;;;22.20;16.17;;;20.10;99.90;;;;;;4134436;28;20502;-71
2021/08/05 06:51:08;;;;;;;19.08;15.68;;;20.10;99.90;;;;;;4121077;28;20046;-72
2021/08/05 06:53:08;;;;;;;22.10;17.20;;;20.10;99.90;;;;;;4134541;28;20445;-72
2021/08/05 06:55:09;;;;;;;26.55;18.30;;;20.20;99.90;;;;;;4130761;28;20054;-72
2021/08/05 06:57:10;;;;;;;19.00;15.82;;;20.20;99.90;;;;;;4134678;28;20034;-71
2021/08/05 06:59:13;;;;;;;23.77;17.27;;;20.20;99.90;;;;;;4137085;28;20029;-71
2021/08/05 07:01:13;;;;;;;20.63;16.50;;;20.20;99.90;;;;;;4118974;28;20046;-71
2021/08/05 07:03:14;;;;;;;21.45;17.63;;;20.20;99.90;;;;;;4140893;28;20100;-71
2021/08/05 07:05:21;;;;;;;18.38;14.70;;;20.20;99.90;;;;;;4187780;27;20402;-71
2021/08/05 07:07:21;;;;;;;17.40;14.02;;;20.30;99.90;;;;;;4186585;28;20039;-72
2021/08/05 07:09:22;;;;;;;18.73;15.50;;;20.30;99.90;;;;;;4187300;28;20033;-71
2021/08/05 07:11:22;;;;;;;21.75;18.05;;;20.40;99.90;;;;;;4160380;28;20026;-71
2021/08/05 07:13:23;;;;;;;20.42;16.13;;;20.40;99.90;;;;;;4170957;28;20592;-72
2021/08/05 07:15:24;;;;;;;19.10;15.57;;;20.40;99.90;;;;;;4171404;28;20036;-72
2021/08/05 07:17:24;;;;;;;17.00;14.10;;;20.40;99.90;;;;;;4168844;28;20466;-71
2021/08/05 07:19:25;;;;;;;18.63;14.75;;;20.40;99.90;;;;;;4171031;28;20450;-72
2021/08/05 07:21:26;;;;;;;17.83;13.10;;;20.50;99.90;;;;;;4171502;28;20022;-72
2021/08/05 07:23:27;;;;;;;16.67;13.88;;;20.50;99.90;;;;;;4170214;28;20496;-71
2021/08/05 07:25:28;;;;;;;17.00;13.65;;;20.60;99.90;;;;;;4171236;28;20128;-72
2021/08/05 07:27:28;;;;;;;17.17;14.70;;;20.60;99.90;;;;;;4170041;28;20071;-72
2021/08/05 07:29:29;;;;;;;18.27;13.95;;;20.70;99.90;;;;;;4168775;28;20079;-72
2021/08/05 07:31:30;;;;;;;18.95;13.45;;;20.70;99.90;;;;;;4169814;28;20060;-72
2021/08/05 07:33:30;;;;;;;15.02;12.40;;;20.80;99.90;;;;;;4170303;28;20928;-71
2021/08/05 07:35:31;;;;;;;16.98;14.10;;;20.80;99.90;;;;;;4168956;28;20037;-72
2021/08/05 07:37:32;;;;;;;16.55;13.93;;;20.80;99.90;;;;;;4165625;28;20041;-71
2021/08/05 07:39:33;;;;;;;20.48;15.20;;;20.80;99.90;;;;;;4155808;28;20401;-72
2021/08/05 07:41:33;;;;;;;17.30;14.57;;;20.90;99.90;;;;;;4154830;28;20112;-72
2021/08/05 07:43:34;;;;;;;17.17;14.15;;;20.90;99.90;;;;;;4155583;28;20038;-72
2021/08/05 07:45:34;;;;;;;15.63;13.13;;;20.90;99.90;;;;;;4153209;28;20068;-72
2021/08/05 07:47:35;;;;;;;17.30;14.23;;;21.00;99.90;;;;;;4153280;28;20052;-72
2021/08/05 07:49:36;;;;;;;18.25;15.38;;;21.00;99.90;;;;;;4155038;28;20042;-72
2021/08/05 07:51:37;;;;;;;19.30;14.68;;;21.00;99.90;;;;;;4153066;28;20034;-72
2021/08/05 07:53:38;;;;;;;15.45;12.68;;;21.10;99.90;;;;;;4154412;28;20084;-72
2021/08/05 07:55:38;;;;;;;15.40;12.05;;;21.00;99.90;;;;;;4154753;28;20401;-71
2021/08/05 07:57:39;;;;;;;19.27;15.18;;;21.10;99.90;;;;;;4153525;28;20367;-72
2021/08/05 07:59:42;;;;;;;16.65;13.65;;;21.10;99.90;;;;;;4153419;28;20044;-72
2021/08/05 08:01:42;;;;;;;16.85;11.52;;;21.20;99.90;;;;;;4151921;28;20490;-72
2021/08/05 08:03:43;;;;;;;14.65;11.38;;;21.20;99.90;;;;;;4154947;28;20036;-71
2021/08/05 08:05:45;;;;;;;11.93;10.60;;;21.20;99.90;;;;;;4152861;28;20025;-72
2021/08/05 08:07:45;;;;;;;15.50;13.35;;;21.30;99.90;;;;;;4156209;28;20451;-72
2021/08/05 08:09:46;;;;;;;18.77;13.63;;;21.30;99.90;;;;;;4154653;28;20057;-72
2021/08/05 08:11:47;;;;;;;18.77;14.63;;;21.40;99.90;;;;;;4154853;28;20034;-71
2021/08/05 08:13:47;;;;;;;15.20;12.52;;;21.40;99.90;;;;;;4155050;28;20038;-71
2021/08/05 08:15:48;;;;;;;16.58;13.25;;;21.40;99.90;;;;;;4148531;28;20536;-72
2021/08/05 08:17:48;;;;;;;15.90;13.05;;;21.40;99.90;;;;;;4144047;28;20457;-71
2021/08/05 08:19:49;;;;;;;16.67;13.60;;;21.50;99.90;;;;;;4142728;28;20137;-71
2021/08/05 08:21:49;;;;;;;19.30;13.27;;;21.50;99.90;;;;;;4141201;28;20054;-71
2021/08/05 08:23:50;;;;;;;16.27;13.23;;;21.50;99.90;;;;;;4142021;28;20038;-71
2021/08/05 08:25:51;;;;;;;19.40;13.82;;;21.60;99.90;;;;;;4142557;28;20117;-71
2021/08/05 08:27:51;;;;;;;15.88;13.10;;;21.60;99.90;;;;;;4143277;28;20069;-71
2021/08/05 08:29:52;;;;;;;16.48;13.60;;;21.60;99.90;;;;;;4147355;28;20057;-72
2021/08/05 08:31:52;;;;;;;16.98;14.65;;;21.60;99.90;;;;;;4142399;28;20531;-72
2021/08/05 08:33:53;;;;;;;19.08;15.75;;;21.60;99.90;;;;;;4143453;28;20033;-71
2021/08/05 08:35:54;;;;;;;20.15;14.77;;;21.70;99.90;;;;;;4143738;28;20033;-71
2021/08/05 08:37:54;;;;;;;19.38;13.93;;;21.60;99.90;;;;;;4143740;28;20133;-71
2021/08/05 08:39:55;;;;;;;14.60;11.70;;;21.70;99.90;;;;;;4144333;28;20040;-71
2021/08/05 08:41:55;;;;;;;17.90;13.80;;;21.80;99.90;;;;;;4142649;28;20030;-71
2021/08/05 08:43:56;;;;;;;13.65;11.35;;;21.80;99.90;;;;;;4143819;28;20513;-71
2021/08/05 08:45:57;;;;;;;20.25;16.52;;;21.80;99.90;;;;;;4143801;28;20049;-71
2021/08/05 08:47:59;;;;;;;17.52;14.55;;;21.80;99.90;;;;;;4143972;28;20041;-71
2021/08/05 08:50:00;;;;;;;19.27;13.15;;;21.90;99.90;;;;;;4141184;28;20402;-71
2021/08/05 08:52:02;;;;;;;18.83;14.60;;;21.90;99.90;;;;;;4142669;28;20158;-71
2021/08/05 08:54:07;;;;;;;18.13;13.95;;;21.90;99.90;;;;;;4143145;28;20068;-71
2021/08/05 08:56:08;;;;;;;15.38;12.68;;;22.00;99.90;;;;;;4174925;28;20069;-71
2021/08/05 08:58:10;;;;;;;15.95;12.65;;;22.00;99.90;;;;;;4142801;28;20037;-71
2021/08/05 09:00:11;;;;;;;15.10;11.98;;;22.00;99.90;;;;;;4143601;28;20026;-71
2021/08/05 09:02:13;;;;;;;12.77;10.90;;;22.10;99.90;;;;;;4142586;28;20038;-71
2021/08/05 09:04:15;;;;;;;14.10;11.07;;;22.20;99.90;;;;;;4143554;28;20340;-71
2021/08/05 09:06:15;;;;;;;16.45;12.52;;;22.30;99.90;;;;;;4142367;28;20490;-71
2021/08/05 09:08:16;;;;;;;13.25;11.55;;;22.20;99.90;;;;;;4142756;28;20052;-71
2021/08/05 09:10:16;;;;;;;12.77;10.38;;;22.30;99.90;;;;;;4142954;28;20140;-71
2021/08/05 09:12:18;;;;;;;17.75;11.05;;;22.40;99.90;;;;;;4142250;28;20614;-71
2021/08/05 09:14:43;;;;;;;13.98;10.82;;;22.50;99.90;;;;;;4132488;28;20037;-71
2021/08/05 09:16:43;;;;;;;10.63;9.40;;;22.50;99.90;;;;;;4147777;28;20125;-71
2021/08/05 09:18:44;;;;;;;11.55;9.77;;;22.60;99.90;;;;;;4143270;28;20482;-72
2021/08/05 09:21:11;;;;;;;13.70;11.20;;;22.70;99.90;;;;;;4142117;28;20041;-71
2021/08/05 09:23:12;;;;;;;13.88;11.05;;;22.80;99.90;;;;;;4146958;28;20120;-72
2021/08/05 09:25:29;;;;;;;12.30;10.85;;;22.80;99.90;;;;;;4139803;28;20639;-72
2021/08/05 09:27:34;;;;;;;14.55;9.95;;;22.90;99.90;;;;;;4139643;28;20095;-72
2021/08/05 09:29:43;;;;;;;11.82;9.60;;;23.10;99.90;;;;;;4142596;28;20458;-72
2021/08/05 09:31:54;;;;;;;14.02;11.45;;;23.20;99.90;;;;;;4140745;28;20037;-72
2021/08/05 09:34:12;;;;;;;14.07;11.60;;;23.20;99.90;;;;;;4137737;28;20461;-72
2021/08/05 09:36:27;;;;;;;13.65;11.45;;;23.30;99.90;;;;;;4143384;28;20037;-71
2021/08/05 09:38:28;;;;;;;13.07;9.80;;;23.40;99.90;;;;;;4142210;28;20072;-71
2021/08/05 09:40:30;;;;;;;13.07;10.55;;;23.50;99.90;;;;;;4143602;28;20038;-72
2021/08/05 09:42:31;;;;;;;16.88;11.75;;;23.50;99.90;;;;;;4155777;28;20041;-72
2021/08/05 09:44:34;;;;;;;16.38;11.35;;;23.60;99.90;;;;;;4142744;28;20037;-72
2021/08/05 09:46:34;;;;;;;16.77;12.57;;;23.60;99.90;;;;;;4141163;28;20030;-72
2021/08/05 09:48:41;;;;;;;13.43;10.85;;;23.70;99.90;;;;;;4141223;28;20045;-72
2021/08/05 09:50:41;;;;;;;17.60;13.75;;;23.80;99.90;;;;;;4142734;28;20057;-71
2021/08/05 09:52:42;;;;;;;16.35;13.05;;;23.80;99.90;;;;;;4141797;28;20041;-71
2021/08/05 09:54:47;;;;;;;18.75;14.25;;;23.80;99.90;;;;;;4141961;28;20049;-72
2021/08/05 09:56:55;;;;;;;15.20;11.52;;;23.80;99.90;;;;;;4142038;28;20042;-72
2021/08/05 09:59:10;;;;;;;12.55;10.48;;;23.90;99.90;;;;;;4142397;28;20495;-71
2021/08/05 10:01:10;;;;;;;14.48;10.65;;;23.90;99.90;;;;;;4147751;28;20042;-71
2021/08/05 10:03:28;;;;;;;13.82;9.25;;;24.00;99.90;;;;;;4139072;28;20042;-72
2021/08/05 10:05:28;;;;;;;14.27;11.00;;;24.10;99.90;;;;;;4154715;28;20321;-72
2021/08/05 10:07:45;;;;;;;16.90;13.00;;;24.10;99.90;;;;;;4157909;28;20396;-72
2021/08/05 10:09:56;;;;;;;16.50;12.45;;;24.20;99.90;;;;;;4143763;28;20344;-72
2021/08/05 10:12:08;;;;;;;13.88;10.50;;;24.20;99.90;;;;;;4123832;28;20030;-72
2021/08/05 10:14:22;;;;;;;15.23;10.80;;;24.30;99.90;;;;;;4157773;28;20033;-72
2021/08/05 10:16:38;;;;;;;14.82;11.23;;;24.30;99.90;;;;;;4149103;28;20037;-72
2021/08/05 10:18:40;;;;;;;10.88;9.23;;;24.30;99.90;;;;;;4142323;28;20030;-72
2021/08/05 10:20:40;;;;;;;15.48;10.65;;;24.40;99.90;;;;;;4142711;28;20034;-72
2021/08/05 10:22:42;;;;;;;10.20;8.90;;;24.50;99.90;;;;;;4140987;28;20040;-72
2021/08/05 10:24:48;;;;;;;12.15;10.20;;;24.50;99.90;;;;;;4141662;28;20511;-72
2021/08/05 10:26:49;;;;;;;14.48;11.15;;;24.60;99.90;;;;;;4155133;28;20048;-72
2021/08/05 10:28:50;;;;;;;10.70;9.13;;;24.60;99.90;;;;;;4154091;28;20030;-72